createdAt,value
2023-03-26T00:00:15.702Z,9.08
2023-03-26T00:01:15.749Z,9.05
2023-03-26T00:02:15.679Z,9.04
2023-03-26T00:03:15.730Z,9.04
2023-03-26T00:04:15.668Z,9.01
2023-03-26T00:05:15.665Z,9.04
2023-03-26T00:06:15.606Z,9.02
2023-03-26T00:07:15.627Z,8.99
2023-03-26T00:08:15.600Z,8.94
2023-03-26T00:09:15.610Z,8.95
2023-03-26T00:10:15.588Z,8.94
2023-03-26T00:11:15.599Z,8.94
2023-03-26T00:12:15.579Z,8.92
2023-03-26T00:13:15.536Z,8.95
2023-03-26T00:14:15.563Z,8.92
2023-03-26T00:15:15.520Z,8.94
2023-03-26T00:16:15.547Z,8.94
2023-03-26T00:17:15.482Z,8.92
2023-03-26T00:18:15.521Z,8.94
2023-03-26T00:19:15.496Z,8.96
2023-03-26T00:20:15.463Z,8.99
2023-03-26T00:21:15.435Z,9.02
2023-03-26T00:22:15.446Z,9.04
2023-03-26T00:23:15.454Z,9.08
2023-03-26T00:24:15.594Z,9.04
2023-03-26T00:25:15.436Z,9.04
2023-03-26T00:26:15.388Z,9.01
2023-03-26T00:27:15.401Z,8.99
2023-03-26T00:28:15.398Z,8.99
2023-03-26T00:29:15.350Z,8.99
2023-03-26T00:30:15.383Z,9.02
2023-03-26T00:31:15.457Z,8.99
2023-03-26T00:32:15.341Z,9.08
2023-03-26T00:33:15.365Z,9.05
2023-03-26T00:34:15.362Z,9.04
2023-03-26T00:35:15.355Z,9.08
2023-03-26T00:36:15.338Z,9.11
2023-03-26T00:37:15.278Z,9.13
2023-03-26T00:38:15.319Z,9.10
2023-03-26T00:39:15.317Z,9.14
2023-03-26T00:40:15.265Z,9.11
2023-03-26T00:41:15.237Z,9.04
2023-03-26T00:42:15.221Z,9.10
2023-03-26T00:43:15.217Z,9.04
2023-03-26T00:44:15.237Z,9.08
2023-03-26T00:45:15.194Z,9.08
2023-03-26T00:46:15.290Z,9.08
2023-03-26T00:47:15.195Z,9.10
2023-03-26T00:48:15.220Z,9.05
2023-03-26T00:49:15.140Z,9.11
2023-03-26T00:50:15.184Z,9.04
2023-03-26T00:51:15.148Z,9.05
2023-03-26T00:52:15.124Z,9.08
2023-03-26T00:53:15.142Z,9.11
2023-03-26T00:54:15.148Z,9.10
2023-03-26T00:55:15.148Z,9.08
2023-03-26T00:56:15.063Z,9.11
2023-03-26T00:57:25.639Z,9.14
2023-03-26T00:58:16.110Z,9.08
2023-03-26T00:59:15.116Z,9.05
2023-03-26T01:00:15.092Z,9.08
2023-03-26T01:01:15.077Z,9.04
2023-03-26T01:02:15.063Z,9.08
2023-03-26T01:03:24.854Z,9.05
2023-03-26T01:04:16.142Z,9.04
2023-03-26T01:05:15.013Z,9.08
2023-03-26T01:06:14.991Z,9.08
2023-03-26T01:07:14.949Z,9.15
2023-03-26T01:08:14.970Z,9.17
2023-03-26T01:09:14.979Z,9.13
2023-03-26T01:10:14.921Z,9.13
2023-03-26T01:11:14.921Z,9.10
2023-03-26T01:12:14.926Z,9.11
2023-03-26T01:13:14.926Z,9.14
2023-03-26T01:14:14.903Z,9.13
2023-03-26T01:15:14.899Z,9.17
2023-03-26T01:16:14.943Z,9.17
2023-03-26T01:17:14.894Z,9.14
2023-03-26T01:18:14.848Z,9.14
2023-03-26T01:19:14.869Z,9.13
2023-03-26T01:20:14.830Z,9.10
2023-03-26T01:21:14.827Z,9.10
2023-03-26T01:22:14.841Z,9.11
2023-03-26T01:23:14.803Z,9.10
2023-03-26T01:24:14.853Z,9.05
2023-03-26T01:25:14.795Z,9.05
2023-03-26T01:26:14.756Z,9.04
2023-03-26T01:27:14.797Z,8.99
2023-03-26T01:28:14.775Z,8.99
2023-03-26T01:29:14.766Z,8.91
2023-03-26T01:30:14.704Z,8.92
2023-03-26T01:31:14.713Z,8.89
2023-03-26T01:32:14.766Z,8.86
2023-03-26T01:33:14.783Z,8.83
2023-03-26T01:34:14.694Z,8.84
2023-03-26T01:35:14.697Z,8.86
2023-03-26T01:36:14.672Z,8.86
2023-03-26T01:37:14.697Z,8.84
2023-03-26T01:38:14.696Z,8.83
2023-03-26T01:39:14.701Z,8.81
2023-03-26T01:40:14.610Z,8.77
2023-03-26T01:41:14.584Z,8.74
2023-03-26T01:42:14.608Z,8.73
2023-03-26T01:43:14.613Z,8.76
2023-03-26T01:44:14.584Z,8.74
2023-03-26T01:45:14.579Z,8.74
2023-03-26T01:46:14.582Z,8.76
2023-03-26T01:47:14.534Z,8.71
2023-03-26T01:48:14.574Z,8.68
2023-03-26T01:49:14.534Z,8.61
2023-03-26T01:50:14.560Z,8.58
2023-03-26T01:51:14.512Z,8.58
2023-03-26T01:52:14.511Z,8.56
2023-03-26T01:53:14.489Z,8.48
2023-03-26T01:54:14.464Z,8.48
2023-03-26T01:55:14.517Z,8.50
2023-03-26T01:56:14.441Z,8.50
2023-03-26T01:57:14.444Z,8.48
2023-03-26T01:58:14.455Z,8.52
2023-03-26T01:59:14.430Z,8.50
2023-03-26T02:00:14.452Z,8.50
2023-03-26T02:01:14.469Z,8.48
2023-03-26T02:02:14.504Z,8.48
2023-03-26T02:03:14.537Z,8.52
2023-03-26T02:04:14.352Z,8.52
2023-03-26T02:05:14.397Z,8.50
2023-03-26T02:06:14.354Z,8.55
2023-03-26T02:07:14.357Z,8.48
2023-03-26T02:08:14.332Z,8.53
2023-03-26T02:09:14.318Z,8.55
2023-03-26T02:10:14.320Z,8.55
2023-03-26T02:11:14.403Z,8.58
2023-03-26T02:12:14.264Z,8.53
2023-03-26T02:13:14.282Z,8.53
2023-03-26T02:14:14.352Z,8.47
2023-03-26T02:15:14.235Z,8.52
2023-03-26T02:16:14.451Z,8.47
2023-03-26T02:17:14.209Z,8.44
2023-03-26T02:18:14.230Z,8.41
2023-03-26T02:19:14.231Z,8.38
2023-03-26T02:20:14.223Z,8.34
2023-03-26T02:21:14.255Z,8.29
2023-03-26T02:22:14.179Z,8.36
2023-03-26T02:23:14.164Z,8.40
2023-03-26T02:24:14.149Z,8.38
2023-03-26T02:25:14.149Z,8.38
2023-03-26T02:26:14.173Z,8.40
2023-03-26T02:27:14.118Z,8.38
2023-03-26T02:28:14.111Z,8.37
2023-03-26T02:29:14.085Z,8.34
2023-03-26T02:30:14.094Z,8.33
2023-03-26T02:31:14.178Z,8.33
2023-03-26T02:32:14.090Z,8.36
2023-03-26T02:33:14.058Z,8.34
2023-03-26T02:34:14.052Z,8.33
2023-03-26T02:35:14.076Z,8.29
2023-03-26T02:36:14.260Z,8.28
2023-03-26T02:37:14.048Z,8.28
2023-03-26T02:38:14.076Z,8.29
2023-03-26T02:39:13.989Z,8.29
2023-03-26T02:40:13.988Z,8.29
2023-03-26T02:41:13.980Z,8.28
2023-03-26T02:42:14.000Z,8.23
2023-03-26T02:43:13.965Z,8.23
2023-03-26T02:44:13.933Z,8.25
2023-03-26T02:45:13.938Z,8.20
2023-03-26T02:46:13.914Z,8.23
2023-03-26T02:47:13.905Z,8.28
2023-03-26T02:48:13.874Z,8.26
2023-03-26T02:49:13.877Z,8.30
2023-03-26T02:50:13.858Z,8.26
2023-03-26T02:51:13.882Z,8.26
2023-03-26T02:52:13.925Z,8.28
2023-03-26T02:53:13.889Z,8.25
2023-03-26T02:54:13.832Z,8.23
2023-03-26T02:55:13.840Z,8.22
2023-03-26T02:56:13.835Z,8.25
2023-03-26T02:57:13.854Z,8.26
2023-03-26T02:58:13.794Z,8.26
2023-03-26T02:59:13.781Z,8.25
2023-03-26T03:00:13.750Z,8.25
2023-03-26T03:01:13.816Z,8.25
2023-03-26T03:02:13.809Z,8.28
2023-03-26T03:03:13.831Z,8.30
2023-03-26T03:04:13.723Z,8.36
2023-03-26T03:05:13.719Z,8.37
2023-03-26T03:06:13.709Z,8.36
2023-03-26T03:07:13.716Z,8.37
2023-03-26T03:08:13.724Z,8.34
2023-03-26T03:09:13.655Z,8.37
2023-03-26T03:10:13.644Z,8.34
2023-03-26T03:11:14.852Z,8.34
2023-03-26T03:12:13.653Z,8.33
2023-03-26T03:13:13.679Z,8.36
2023-03-26T03:14:13.622Z,8.37
2023-03-26T03:15:13.623Z,8.36
2023-03-26T03:16:13.655Z,8.43
2023-03-26T03:17:13.572Z,8.41
2023-03-26T03:18:13.630Z,8.44
2023-03-26T03:19:13.549Z,8.41
2023-03-26T03:20:13.529Z,8.43
2023-03-26T03:21:13.559Z,8.41
2023-03-26T03:22:13.513Z,8.38
2023-03-26T03:23:13.563Z,8.36
2023-03-26T03:24:13.510Z,8.38
2023-03-26T03:25:13.502Z,8.40
2023-03-26T03:26:13.491Z,8.40
2023-03-26T03:27:13.492Z,8.38
2023-03-26T03:28:13.451Z,8.41
2023-03-26T03:29:13.436Z,8.43
2023-03-26T03:30:13.512Z,8.43
2023-03-26T03:31:13.586Z,8.40
2023-03-26T03:32:13.455Z,8.40
2023-03-26T03:33:13.473Z,8.40
2023-03-26T03:34:13.407Z,8.40
2023-03-26T03:35:13.411Z,8.40
2023-03-26T03:36:20.175Z,8.37
2023-03-26T03:37:14.406Z,8.36
2023-03-26T03:38:13.372Z,8.38
2023-03-26T03:39:13.359Z,8.41
2023-03-26T03:40:13.389Z,8.44
2023-03-26T03:41:13.324Z,8.40
2023-03-26T03:42:13.325Z,8.41
2023-03-26T03:43:13.331Z,8.45
2023-03-26T03:44:13.300Z,8.44
2023-03-26T03:45:13.317Z,8.45
2023-03-26T03:46:13.300Z,8.47
2023-03-26T03:47:13.314Z,8.44
2023-03-26T03:48:13.237Z,8.47
2023-03-26T03:49:13.257Z,8.47
2023-03-26T03:50:13.284Z,8.45
2023-03-26T03:51:13.218Z,8.45
2023-03-26T03:52:13.229Z,8.48
2023-03-26T03:53:13.238Z,8.44
2023-03-26T03:54:13.175Z,8.45
2023-03-26T03:55:13.227Z,8.45
2023-03-26T03:56:13.175Z,8.43
2023-03-26T03:57:13.217Z,8.41
2023-03-26T03:58:13.152Z,8.44
2023-03-26T03:59:13.151Z,8.43
2023-03-26T04:00:13.172Z,8.41
2023-03-26T04:01:13.141Z,8.44
2023-03-26T04:02:13.153Z,8.38
2023-03-26T04:03:13.206Z,8.37
2023-03-26T04:04:13.173Z,8.40
2023-03-26T04:05:13.065Z,8.41
2023-03-26T04:06:13.097Z,8.43
2023-03-26T04:07:13.052Z,8.44
2023-03-26T04:08:13.063Z,8.44
2023-03-26T04:09:13.026Z,8.44
2023-03-26T04:10:13.062Z,8.43
2023-03-26T04:11:13.106Z,8.43
2023-03-26T04:12:13.036Z,8.45
2023-03-26T04:13:12.994Z,8.44
2023-03-26T04:14:12.982Z,8.44
2023-03-26T04:15:13.044Z,8.43
2023-03-26T04:16:13.101Z,8.44
2023-03-26T04:17:12.947Z,8.48
2023-03-26T04:18:12.919Z,8.48
2023-03-26T04:19:12.952Z,8.48
2023-03-26T04:20:12.935Z,8.47
2023-03-26T04:21:12.887Z,8.44
2023-03-26T04:22:12.910Z,8.41
2023-03-26T04:23:12.919Z,8.43
2023-03-26T04:24:12.912Z,8.44
2023-03-26T04:25:12.892Z,8.48
2023-03-26T04:26:12.822Z,8.48
2023-03-26T04:27:12.807Z,8.47
2023-03-26T04:28:12.819Z,8.48
2023-03-26T04:29:12.853Z,8.48
2023-03-26T04:30:12.846Z,8.55
2023-03-26T04:31:12.783Z,8.50
2023-03-26T04:32:12.733Z,8.55
2023-03-26T04:33:12.737Z,8.50
2023-03-26T04:34:12.964Z,8.47
2023-03-26T04:35:12.744Z,8.47
2023-03-26T04:36:12.763Z,8.45
2023-03-26T04:37:12.702Z,8.47
2023-03-26T04:38:12.671Z,8.44
2023-03-26T04:39:12.643Z,8.45
2023-03-26T04:40:12.660Z,8.48
2023-03-26T04:41:12.657Z,8.50
2023-03-26T04:42:12.638Z,8.43
2023-03-26T04:43:12.641Z,8.43
2023-03-26T04:44:12.609Z,8.41
2023-03-26T04:45:12.578Z,8.40
2023-03-26T04:46:12.610Z,8.37
2023-03-26T04:47:12.596Z,8.40
2023-03-26T04:48:12.577Z,8.37
2023-03-26T04:49:12.539Z,8.34
2023-03-26T04:50:12.566Z,8.38
2023-03-26T04:51:12.518Z,8.40
2023-03-26T04:52:12.530Z,8.37
2023-03-26T04:53:12.507Z,8.43
2023-03-26T04:54:12.494Z,8.43
2023-03-26T04:55:12.495Z,8.41
2023-03-26T04:56:12.470Z,8.43
2023-03-26T04:57:12.483Z,8.45
2023-03-26T04:58:12.462Z,8.45
2023-03-26T04:59:12.488Z,8.47
2023-03-26T05:00:12.442Z,8.47
2023-03-26T05:01:12.433Z,8.45
2023-03-26T05:02:12.442Z,8.45
2023-03-26T05:03:12.403Z,8.44
2023-03-26T05:04:13.400Z,8.41
2023-03-26T05:05:12.377Z,8.43
2023-03-26T05:06:12.363Z,8.40
2023-03-26T05:07:12.379Z,8.38
2023-03-26T05:08:12.374Z,8.37
2023-03-26T05:09:12.348Z,8.34
2023-03-26T05:10:12.322Z,8.37
2023-03-26T05:11:12.327Z,8.36
2023-03-26T05:12:12.335Z,8.34
2023-03-26T05:13:12.333Z,8.34
2023-03-26T05:14:12.283Z,8.34
2023-03-26T05:15:12.281Z,8.37
2023-03-26T05:16:12.316Z,8.33
2023-03-26T05:17:12.264Z,8.34
2023-03-26T05:18:12.267Z,8.37
2023-03-26T05:19:12.243Z,8.33
2023-03-26T05:20:12.215Z,8.33
2023-03-26T05:21:12.256Z,8.30
2023-03-26T05:22:12.204Z,8.30
2023-03-26T05:23:12.208Z,8.33
2023-03-26T05:24:12.169Z,8.34
2023-03-26T05:25:12.182Z,8.33
2023-03-26T05:26:12.196Z,8.29
2023-03-26T05:27:12.185Z,8.36
2023-03-26T05:28:12.124Z,8.37
2023-03-26T05:29:12.146Z,8.37
2023-03-26T05:30:12.133Z,8.37
2023-03-26T05:31:12.126Z,8.40
2023-03-26T05:32:12.089Z,8.34
2023-03-26T05:33:12.140Z,8.38
2023-03-26T05:34:12.088Z,8.40
2023-03-26T05:35:12.064Z,8.41
2023-03-26T05:36:12.146Z,8.44
2023-03-26T05:37:12.077Z,8.41
2023-03-26T05:38:12.010Z,8.43
2023-03-26T05:39:12.079Z,8.38
2023-03-26T05:40:11.996Z,8.38
2023-03-26T05:41:12.029Z,8.36
2023-03-26T05:42:12.042Z,8.40
2023-03-26T05:43:12.087Z,8.41
2023-03-26T05:44:11.995Z,8.41
2023-03-26T05:45:11.966Z,8.45
2023-03-26T05:46:12.125Z,8.45
2023-03-26T05:47:11.994Z,8.45
2023-03-26T05:48:11.970Z,8.47
2023-03-26T05:49:11.928Z,8.44
2023-03-26T05:50:11.932Z,8.45
2023-03-26T05:51:11.893Z,8.44
2023-03-26T05:52:11.884Z,8.40
2023-03-26T05:53:11.869Z,8.41
2023-03-26T05:54:11.888Z,8.43
2023-03-26T05:55:11.845Z,8.47
2023-03-26T05:56:11.838Z,8.43
2023-03-26T05:57:11.855Z,8.45
2023-03-26T05:58:11.806Z,8.47
2023-03-26T05:59:11.845Z,8.50
2023-03-26T06:00:11.796Z,8.52
2023-03-26T06:01:11.819Z,8.52
2023-03-26T06:02:11.801Z,8.50
2023-03-26T06:03:11.956Z,8.48
2023-03-26T06:04:11.858Z,8.48
2023-03-26T06:05:11.777Z,8.40
2023-03-26T06:06:11.762Z,8.40
2023-03-26T06:07:11.715Z,8.41
2023-03-26T06:08:11.712Z,8.44
2023-03-26T06:09:11.707Z,8.41
2023-03-26T06:10:11.696Z,8.45
2023-03-26T06:11:12.690Z,8.44
2023-03-26T06:12:11.655Z,8.44
2023-03-26T06:13:11.655Z,8.40
2023-03-26T06:14:11.652Z,8.38
2023-03-26T06:15:11.670Z,8.37
2023-03-26T06:16:26.195Z,8.41
2023-03-26T06:17:12.627Z,8.40
2023-03-26T06:18:11.664Z,8.41
2023-03-26T06:19:11.726Z,8.44
2023-03-26T06:20:11.584Z,8.53
2023-03-26T06:21:11.625Z,8.56
2023-03-26T06:22:11.539Z,8.55
2023-03-26T06:23:11.534Z,8.50
2023-03-26T06:24:11.534Z,8.48
2023-03-26T06:25:11.547Z,8.47
2023-03-26T06:26:11.506Z,8.47
2023-03-26T06:27:11.512Z,8.55
2023-03-26T06:28:11.505Z,8.53
2023-03-26T06:29:11.505Z,8.53
2023-03-26T06:30:11.526Z,8.56
2023-03-26T06:31:11.489Z,8.58
2023-03-26T06:32:19.679Z,8.59
2023-03-26T06:33:12.443Z,8.61
2023-03-26T06:34:11.460Z,8.66
2023-03-26T06:35:11.425Z,8.58
2023-03-26T06:36:11.479Z,8.61
2023-03-26T06:37:11.446Z,8.70
2023-03-26T06:38:11.369Z,8.71
2023-03-26T06:39:11.402Z,8.76
2023-03-26T06:40:11.584Z,8.77
2023-03-26T06:41:11.382Z,8.73
2023-03-26T06:42:11.342Z,8.73
2023-03-26T06:43:11.362Z,8.70
2023-03-26T06:44:11.382Z,8.71
2023-03-26T06:45:11.333Z,8.66
2023-03-26T06:46:11.328Z,8.66
2023-03-26T06:47:11.335Z,8.66
2023-03-26T06:48:11.295Z,8.65
2023-03-26T06:49:11.281Z,8.63
2023-03-26T06:50:11.310Z,8.61
2023-03-26T06:51:11.278Z,8.61
2023-03-26T06:52:11.273Z,8.50
2023-03-26T06:53:11.233Z,8.45
2023-03-26T06:54:11.213Z,8.44
2023-03-26T06:55:11.250Z,8.43
2023-03-26T06:56:11.265Z,8.41
2023-03-26T06:57:11.319Z,8.43
2023-03-26T06:58:11.162Z,8.38
2023-03-26T06:59:11.204Z,8.36
2023-03-26T07:00:11.159Z,8.43
2023-03-26T07:01:11.186Z,8.50
2023-03-26T07:02:11.140Z,8.55
2023-03-26T07:03:11.133Z,8.55
2023-03-26T07:04:11.139Z,8.59
2023-03-26T07:05:11.104Z,8.66
2023-03-26T07:06:11.118Z,8.73
2023-03-26T07:07:11.085Z,8.77
2023-03-26T07:08:11.083Z,8.80
2023-03-26T07:09:11.088Z,8.80
2023-03-26T07:10:11.042Z,8.89
2023-03-26T07:11:11.054Z,8.92
2023-03-26T07:12:11.016Z,8.95
2023-03-26T07:13:11.023Z,8.91
2023-03-26T07:14:11.015Z,8.96
2023-03-26T07:15:11.001Z,8.99
2023-03-26T07:16:11.012Z,9.13
2023-03-26T07:17:10.983Z,9.28
2023-03-26T07:18:10.980Z,9.31
2023-03-26T07:19:10.962Z,9.35
2023-03-26T07:20:10.940Z,9.29
2023-03-26T07:21:10.924Z,9.24
2023-03-26T07:22:10.921Z,9.28
2023-03-26T07:23:10.919Z,9.24
2023-03-26T07:24:10.967Z,9.24
2023-03-26T07:25:10.871Z,9.17
2023-03-26T07:26:10.863Z,9.11
2023-03-26T07:27:10.869Z,9.10
2023-03-26T07:28:10.860Z,9.05
2023-03-26T07:29:10.916Z,9.05
2023-03-26T07:30:10.825Z,9.20
2023-03-26T07:31:10.842Z,9.33
2023-03-26T07:32:10.837Z,9.42
2023-03-26T07:33:10.787Z,9.64
2023-03-26T07:34:10.850Z,9.68
2023-03-26T07:35:10.793Z,9.58
2023-03-26T07:36:10.794Z,9.51
2023-03-26T07:37:10.773Z,9.46
2023-03-26T07:38:10.797Z,9.42
2023-03-26T07:39:10.770Z,9.43
2023-03-26T07:40:10.758Z,9.51
2023-03-26T07:41:10.731Z,9.56
2023-03-26T07:42:10.709Z,9.47
2023-03-26T07:43:10.718Z,9.39
2023-03-26T07:44:10.706Z,9.42
2023-03-26T07:45:10.688Z,9.42
2023-03-26T07:46:10.762Z,9.47
2023-03-26T07:47:10.647Z,9.51
2023-03-26T07:48:10.725Z,9.54
2023-03-26T07:49:11.059Z,9.54
2023-03-26T07:50:10.642Z,9.51
2023-03-26T07:51:10.624Z,9.38
2023-03-26T07:52:10.657Z,9.33
2023-03-26T07:53:10.658Z,9.29
2023-03-26T07:54:10.667Z,9.29
2023-03-26T07:55:10.675Z,9.32
2023-03-26T07:56:10.652Z,9.33
2023-03-26T07:57:10.641Z,9.32
2023-03-26T07:58:10.537Z,9.38
2023-03-26T07:59:10.548Z,9.36
2023-03-26T08:00:11.256Z,9.40
2023-03-26T08:01:10.518Z,9.29
2023-03-26T08:02:10.528Z,9.29
2023-03-26T08:03:10.639Z,9.18
2023-03-26T08:04:23.762Z,9.14
2023-03-26T08:05:11.803Z,9.15
2023-03-26T08:06:11.419Z,9.15
2023-03-26T08:07:10.454Z,9.18
2023-03-26T08:08:10.679Z,9.26
2023-03-26T08:09:10.477Z,9.32
2023-03-26T08:10:10.427Z,9.35
2023-03-26T08:11:10.884Z,9.29
2023-03-26T08:12:10.448Z,9.26
2023-03-26T08:13:10.406Z,9.20
2023-03-26T08:14:10.357Z,9.15
2023-03-26T08:15:10.365Z,9.11
2023-03-26T08:16:10.414Z,9.11
2023-03-26T08:17:10.373Z,9.17
2023-03-26T08:18:10.409Z,9.18
2023-03-26T08:19:10.316Z,9.21
2023-03-26T08:20:10.356Z,9.20
2023-03-26T08:21:10.301Z,9.28
2023-03-26T08:22:10.294Z,9.39
2023-03-26T08:23:10.271Z,9.50
2023-03-26T08:24:10.257Z,9.64
2023-03-26T08:25:10.225Z,9.74
2023-03-26T08:26:10.257Z,9.71
2023-03-26T08:27:10.217Z,9.69
2023-03-26T08:28:10.203Z,9.66
2023-03-26T08:29:10.207Z,9.81
2023-03-26T08:30:10.193Z,9.93
2023-03-26T08:31:10.287Z,9.94
2023-03-26T08:32:10.188Z,9.90
2023-03-26T08:33:10.210Z,9.78
2023-03-26T08:34:10.134Z,9.78
2023-03-26T08:35:10.145Z,9.84
2023-03-26T08:36:10.177Z,9.78
2023-03-26T08:37:10.139Z,9.84
2023-03-26T08:38:10.106Z,9.87
2023-03-26T08:39:10.077Z,9.90
2023-03-26T08:40:10.114Z,9.97
2023-03-26T08:41:10.083Z,10.01
2023-03-26T08:42:10.068Z,10.07
2023-03-26T08:43:10.045Z,10.05
2023-03-26T08:44:10.046Z,10.17
2023-03-26T08:45:10.115Z,10.12
2023-03-26T08:46:10.108Z,9.87
2023-03-26T08:47:10.033Z,9.50
2023-03-26T08:48:09.985Z,9.43
2023-03-26T08:49:10.011Z,9.40
2023-03-26T08:50:09.962Z,9.38
2023-03-26T08:51:09.947Z,9.42
2023-03-26T08:52:09.975Z,9.51
2023-03-26T08:53:10.016Z,9.60
2023-03-26T08:54:09.915Z,9.56
2023-03-26T08:55:09.926Z,9.56
2023-03-26T08:56:09.926Z,9.60
2023-03-26T08:57:09.969Z,9.65
2023-03-26T08:58:09.898Z,9.54
2023-03-26T08:59:09.890Z,9.47
2023-03-26T09:00:09.861Z,9.39
2023-03-26T09:01:09.913Z,9.38
2023-03-26T09:02:09.919Z,9.36
2023-03-26T09:03:09.871Z,9.46
2023-03-26T09:04:09.930Z,9.51
2023-03-26T09:05:09.824Z,9.54
2023-03-26T09:06:09.801Z,9.56
2023-03-26T09:07:09.886Z,9.60
2023-03-26T09:08:09.820Z,9.66
2023-03-26T09:09:09.798Z,9.65
2023-03-26T09:10:10.756Z,9.66
2023-03-26T09:11:09.786Z,9.66
2023-03-26T09:12:09.760Z,9.71
2023-03-26T09:13:09.744Z,9.69
2023-03-26T09:14:09.709Z,9.75
2023-03-26T09:15:09.707Z,9.75
2023-03-26T09:16:09.724Z,9.84
2023-03-26T09:17:09.775Z,9.81
2023-03-26T09:18:09.738Z,9.83
2023-03-26T09:19:09.660Z,9.90
2023-03-26T09:20:09.676Z,9.97
2023-03-26T09:21:09.709Z,10.01
2023-03-26T09:22:09.627Z,10.05
2023-03-26T09:23:09.651Z,10.02
2023-03-26T09:24:09.633Z,9.96
2023-03-26T09:25:09.630Z,10.01
2023-03-26T09:26:09.604Z,9.94
2023-03-26T09:27:09.581Z,9.99
2023-03-26T09:28:09.813Z,9.91
2023-03-26T09:29:09.666Z,9.86
2023-03-26T09:30:09.709Z,9.74
2023-03-26T09:31:09.692Z,9.69
2023-03-26T09:32:09.688Z,9.72
2023-03-26T09:33:09.585Z,9.76
2023-03-26T09:34:09.532Z,9.75
2023-03-26T09:35:11.823Z,9.66
2023-03-26T09:36:09.548Z,9.53
2023-03-26T09:37:09.505Z,9.51
2023-03-26T09:38:09.492Z,9.38
2023-03-26T09:39:09.471Z,9.33
2023-03-26T09:40:09.442Z,9.32
2023-03-26T09:41:09.481Z,8.91
2023-03-26T09:42:09.445Z,8.76
2023-03-26T09:43:09.414Z,8.63
2023-03-26T09:44:09.401Z,8.47
2023-03-26T09:45:09.476Z,8.37
2023-03-26T09:46:09.455Z,8.30
2023-03-26T09:47:09.391Z,8.23
2023-03-26T09:48:09.361Z,8.18
2023-03-26T09:49:09.371Z,8.08
2023-03-26T09:50:09.393Z,8.02
2023-03-26T09:51:09.384Z,7.98
2023-03-26T09:52:09.350Z,7.93
2023-03-26T09:53:09.353Z,7.95
2023-03-26T09:54:09.326Z,7.92
2023-03-26T09:55:09.311Z,7.79
2023-03-26T09:56:09.330Z,7.79
2023-03-26T09:57:09.339Z,7.79
2023-03-26T09:58:09.305Z,7.80
2023-03-26T09:59:09.296Z,7.82
2023-03-26T10:00:09.254Z,7.80
2023-03-26T10:01:09.268Z,7.79
2023-03-26T10:02:09.230Z,7.82
2023-03-26T10:03:09.237Z,7.82
2023-03-26T10:04:09.229Z,7.79
2023-03-26T10:05:09.212Z,7.80
2023-03-26T10:06:09.167Z,7.89
2023-03-26T10:07:09.251Z,7.86
2023-03-26T10:08:09.149Z,7.85
2023-03-26T10:09:09.164Z,7.86
2023-03-26T10:10:09.136Z,7.87
2023-03-26T10:11:09.269Z,7.87
2023-03-26T10:12:09.111Z,7.87
2023-03-26T10:13:14.763Z,7.97
2023-03-26T10:14:10.132Z,8.10
2023-03-26T10:15:09.087Z,8.19
2023-03-26T10:16:09.088Z,8.22
2023-03-26T10:17:09.068Z,8.30
2023-03-26T10:18:26.980Z,8.38
2023-03-26T10:19:10.031Z,8.43
2023-03-26T10:20:09.056Z,8.40
2023-03-26T10:21:09.091Z,8.48
2023-03-26T10:22:09.017Z,8.61
2023-03-26T10:23:08.989Z,8.58
2023-03-26T10:24:08.988Z,8.45
2023-03-26T10:25:09.003Z,8.37
2023-03-26T10:26:08.973Z,8.40
2023-03-26T10:27:10.831Z,8.45
2023-03-26T10:28:08.957Z,8.44
2023-03-26T10:29:08.945Z,8.45
2023-03-26T10:30:08.981Z,8.44
2023-03-26T10:31:08.951Z,8.43
2023-03-26T10:32:08.960Z,8.38
2023-03-26T10:33:08.929Z,8.36
2023-03-26T10:34:08.892Z,8.34
2023-03-26T10:35:09.857Z,8.38
2023-03-26T10:36:08.923Z,8.53
2023-03-26T10:37:08.920Z,8.63
2023-03-26T10:38:08.829Z,8.68
2023-03-26T10:39:08.810Z,8.65
2023-03-26T10:40:08.812Z,8.71
2023-03-26T10:41:08.810Z,8.77
2023-03-26T10:42:08.832Z,8.77
2023-03-26T10:43:08.833Z,8.68
2023-03-26T10:44:09.247Z,8.71
2023-03-26T10:45:08.772Z,8.66
2023-03-26T10:46:08.854Z,8.70
2023-03-26T10:47:08.765Z,8.66
2023-03-26T10:48:08.824Z,8.65
2023-03-26T10:49:08.794Z,8.65
2023-03-26T10:50:08.802Z,8.62
2023-03-26T10:51:08.717Z,8.68
2023-03-26T10:52:08.705Z,8.76
2023-03-26T10:53:08.726Z,8.66
2023-03-26T10:54:08.653Z,8.70
2023-03-26T10:55:08.663Z,8.70
2023-03-26T10:56:08.637Z,8.73
2023-03-26T10:57:08.664Z,8.74
2023-03-26T10:58:08.642Z,8.79
2023-03-26T10:59:08.608Z,8.86
2023-03-26T11:00:08.669Z,8.96
2023-03-26T11:01:08.679Z,9.01
2023-03-26T11:02:08.639Z,9.08
2023-03-26T11:03:08.621Z,9.14
2023-03-26T11:04:08.630Z,9.21
2023-03-26T11:05:08.612Z,9.23
2023-03-26T11:06:08.531Z,9.29
2023-03-26T11:07:08.749Z,9.33
2023-03-26T11:08:08.544Z,9.31
2023-03-26T11:09:08.536Z,9.24
2023-03-26T11:10:08.620Z,9.15
2023-03-26T11:11:08.567Z,9.13
2023-03-26T11:12:26.898Z,9.11
2023-03-26T11:13:09.472Z,9.15
2023-03-26T11:14:08.480Z,9.17
2023-03-26T11:15:08.577Z,9.17
2023-03-26T11:16:08.512Z,9.23
2023-03-26T11:17:08.456Z,9.26
2023-03-26T11:18:09.446Z,9.24
2023-03-26T11:19:08.426Z,9.33
2023-03-26T11:20:08.431Z,9.33
2023-03-26T11:21:18.819Z,9.36
2023-03-26T11:22:09.401Z,9.50
2023-03-26T11:23:08.350Z,9.71
2023-03-26T11:24:08.416Z,9.75
2023-03-26T11:25:08.356Z,9.74
2023-03-26T11:26:08.379Z,9.64
2023-03-26T11:27:15.373Z,9.72
2023-03-26T11:28:09.346Z,9.81
2023-03-26T11:29:32.938Z,9.84
2023-03-26T11:30:09.285Z,9.71
2023-03-26T11:31:08.324Z,9.79
2023-03-26T11:32:08.284Z,9.89
2023-03-26T11:33:08.268Z,9.72
2023-03-26T11:34:08.334Z,9.84
2023-03-26T11:35:08.246Z,9.86
2023-03-26T11:36:08.234Z,9.90
2023-03-26T11:37:08.250Z,10.27
2023-03-26T11:38:08.212Z,10.55
2023-03-26T11:39:08.211Z,10.36
2023-03-26T11:40:08.181Z,10.33
2023-03-26T11:41:08.228Z,10.44
2023-03-26T11:42:08.191Z,10.47
2023-03-26T11:43:08.159Z,10.33
2023-03-26T11:44:08.174Z,10.38
2023-03-26T11:45:08.192Z,10.27
2023-03-26T11:46:08.164Z,10.20
2023-03-26T11:47:08.118Z,10.09
2023-03-26T11:48:08.186Z,10.20
2023-03-26T11:49:08.108Z,10.36
2023-03-26T11:50:08.074Z,10.41
2023-03-26T11:51:08.173Z,10.45
2023-03-26T11:52:08.139Z,10.38
2023-03-26T11:53:08.062Z,10.34
2023-03-26T11:54:08.106Z,10.22
2023-03-26T11:55:08.062Z,10.34
2023-03-26T11:56:08.067Z,10.52
2023-03-26T11:57:08.112Z,10.42
2023-03-26T11:58:08.070Z,10.45
2023-03-26T11:59:08.166Z,10.53
2023-03-26T12:00:08.022Z,10.60
2023-03-26T12:01:08.070Z,10.64
2023-03-26T12:02:08.054Z,10.68
2023-03-26T12:03:08.040Z,10.74
2023-03-26T12:04:07.961Z,10.79
2023-03-26T12:05:07.895Z,10.82
2023-03-26T12:06:07.906Z,10.86
2023-03-26T12:07:07.894Z,10.92
2023-03-26T12:08:07.875Z,10.78
2023-03-26T12:09:07.872Z,10.79
2023-03-26T12:10:18.614Z,10.81
2023-03-26T12:11:08.863Z,10.81
2023-03-26T12:12:07.865Z,10.68
2023-03-26T12:13:07.853Z,10.67
2023-03-26T12:14:07.857Z,10.74
2023-03-26T12:15:07.830Z,10.60
2023-03-26T12:16:07.860Z,10.55
2023-03-26T12:17:07.822Z,10.48
2023-03-26T12:18:07.815Z,10.68
2023-03-26T12:19:07.826Z,10.73
2023-03-26T12:20:07.797Z,10.82
2023-03-26T12:21:08.327Z,10.89
2023-03-26T12:22:07.752Z,10.91
2023-03-26T12:23:07.693Z,10.92
2023-03-26T12:24:07.737Z,10.81
2023-03-26T12:25:07.728Z,10.73
2023-03-26T12:26:07.717Z,10.68
2023-03-26T12:27:07.889Z,10.76
2023-03-26T12:28:07.688Z,10.74
2023-03-26T12:29:07.651Z,10.89
2023-03-26T12:30:07.677Z,10.88
2023-03-26T12:31:07.655Z,10.96
2023-03-26T12:32:07.712Z,11.14
2023-03-26T12:33:07.639Z,11.18
2023-03-26T12:34:07.647Z,11.28
2023-03-26T12:35:07.581Z,11.43
2023-03-26T12:36:08.040Z,11.44
2023-03-26T12:37:07.581Z,11.37
2023-03-26T12:38:07.602Z,11.55
2023-03-26T12:40:06.091Z,11.65
2023-03-26T12:40:13.730Z,11.73
2023-03-26T12:41:08.571Z,11.78
2023-03-26T12:44:43.869Z,11.94
2023-03-26T12:44:51.503Z,12.10
2023-03-26T12:44:56.640Z,12.07
2023-03-26T12:45:08.482Z,12.07
2023-03-26T12:47:56.321Z,12.02
2023-03-26T12:47:57.823Z,11.96
2023-03-26T12:48:08.525Z,11.80
2023-03-26T12:49:07.590Z,11.65
2023-03-26T12:50:07.436Z,11.85
2023-03-26T12:51:07.548Z,12.10
2023-03-26T12:52:09.334Z,12.13
2023-03-26T12:53:07.415Z,12.20
2023-03-26T12:54:07.376Z,12.31
2023-03-26T12:55:12.086Z,12.38
2023-03-26T12:56:08.360Z,12.28
2023-03-26T12:57:12.180Z,12.13
2023-03-26T12:58:13.675Z,11.86
2023-03-26T12:59:08.396Z,11.64
2023-03-26T13:00:07.304Z,11.58
2023-03-26T13:01:07.333Z,11.64
2023-03-26T13:02:07.306Z,11.61
2023-03-26T13:03:07.338Z,11.65
2023-03-26T13:04:07.253Z,11.51
2023-03-26T13:05:07.314Z,11.67
2023-03-26T13:06:07.284Z,11.60
2023-03-26T13:07:07.261Z,11.70
2023-03-26T13:08:07.311Z,11.82
2023-03-26T13:09:07.218Z,11.99
2023-03-26T13:10:07.224Z,12.02
2023-03-26T13:11:07.233Z,12.04
2023-03-26T13:12:07.189Z,12.21
2023-03-26T13:13:07.181Z,12.19
2023-03-26T13:14:07.174Z,12.17